Fannett, Texas
Current Conditions -  °F | °C
As of 1:53 PM on Tuesday 25 Nov 2014 (Local Time) from KBPT Reporting Station
Clear Clear  
Wind Chill: 62°   Ceiling: Unl
Heat Index: 62°   Visibility: 10mi
Dew Point: 32°   Wind: 6mph
Humidity: 32%   Direction: 10°N
Pressure: 30.22"   Gusts: NA
Location:  29.9571°N, 94.1363°W
Report Text: KBPT 251953Z 01005KT 10SM CLR 17/00 A3022 RMK AO2 SLP233 T01670000
Loading
Personal Weather Stations






























Interactive Weather Map New forecast layout! Learn more

10-Day Weather Forecast

Advertisements
Track Severe Weather on mobile